createdAt,value
2018-11-02T00:00:41.108Z,7.55
2018-11-02T00:01:41.088Z,7.66
2018-11-02T00:02:41.099Z,7.50
2018-11-02T00:03:41.083Z,7.58
2018-11-02T00:04:41.087Z,7.49
2018-11-02T00:05:49.706Z,7.75
2018-11-02T00:07:34.471Z,7.74
2018-11-02T03:14:30.157Z,6.38
2018-11-02T03:15:30.130Z,6.38
2018-11-02T03:16:30.117Z,6.33
2018-11-02T03:17:30.109Z,6.35
2018-11-02T03:18:30.157Z,6.32
2018-11-02T03:19:30.086Z,6.32
2018-11-02T03:20:30.071Z,6.28
2018-11-02T03:21:30.073Z,6.09
2018-11-02T03:22:30.081Z,6.10
2018-11-02T03:23:30.058Z,6.26
2018-11-02T03:24:30.028Z,6.30
2018-11-02T03:25:30.022Z,6.43
2018-11-02T03:26:30.012Z,6.53
2018-11-02T03:27:30.003Z,6.91
2018-11-02T03:28:29.989Z,7.34
2018-11-02T03:29:30.005Z,7.27
2018-11-02T03:30:29.985Z,6.98
2018-11-02T03:31:29.969Z,6.73
2018-11-02T03:32:29.968Z,6.84
2018-11-02T03:33:29.956Z,6.71
2018-11-02T03:34:29.965Z,6.65
2018-11-02T03:35:29.934Z,6.47
2018-11-02T03:36:29.959Z,6.47
2018-11-02T03:37:29.950Z,6.83
2018-11-02T03:38:29.907Z,6.71
2018-11-02T03:39:29.910Z,6.68
2018-11-02T03:40:29.888Z,6.68
2018-11-02T03:41:38.542Z,6.73
2018-11-02T03:43:23.284Z,7.08
2018-11-02T03:44:23.266Z,7.40
2018-11-02T03:45:23.280Z,7.47
2018-11-02T03:46:23.243Z,7.52
2018-11-02T03:47:23.233Z,7.37
2018-11-02T03:48:23.227Z,7.32
2018-11-02T03:49:23.222Z,7.40
2018-11-02T03:50:23.212Z,7.40
2018-11-02T03:51:23.200Z,7.41
2018-11-02T03:52:23.191Z,7.41
2018-11-02T03:53:23.221Z,7.19
2018-11-02T03:54:23.199Z,7.01
2018-11-02T03:55:23.174Z,6.99
2018-11-02T03:56:23.158Z,6.98
2018-11-02T03:57:23.155Z,6.89
2018-11-02T03:58:23.145Z,6.90
2018-11-02T03:59:23.149Z,7.07
2018-11-02T04:00:23.165Z,7.44
2018-11-02T04:01:23.121Z,7.67
2018-11-02T04:02:23.116Z,7.67
2018-11-02T04:03:23.108Z,7.38
2018-11-02T04:04:23.099Z,7.19
2018-11-02T04:05:23.102Z,7.13
2018-11-02T04:06:23.111Z,7.09
2018-11-02T04:07:23.079Z,7.08
2018-11-02T04:08:23.091Z,6.98
2018-11-02T04:09:23.102Z,7.09
2018-11-02T04:10:23.062Z,6.97
2018-11-02T04:11:23.050Z,6.94
2018-11-02T04:12:23.039Z,6.91
2018-11-02T04:13:23.032Z,6.84
2018-11-02T04:14:23.032Z,6.90
2018-11-02T04:15:23.020Z,6.91
2018-11-02T04:16:23.026Z,6.94
2018-11-02T04:17:23.005Z,6.95
2018-11-02T04:18:23.011Z,6.95
2018-11-02T04:19:22.987Z,6.97
2018-11-02T04:20:22.996Z,6.90
2018-11-02T04:21:22.970Z,6.94
2018-11-02T04:22:22.964Z,7.27
2018-11-02T04:23:22.958Z,7.01
2018-11-02T04:24:22.953Z,6.95
2018-11-02T04:25:22.937Z,7.02
2018-11-02T04:26:22.935Z,6.95
2018-11-02T04:27:22.926Z,7.07
2018-11-02T04:28:22.918Z,6.98
2018-11-02T04:29:22.906Z,6.97
2018-11-02T04:30:22.916Z,6.94
2018-11-02T04:31:22.896Z,6.90
2018-11-02T04:32:22.891Z,7.42
2018-11-02T04:33:22.882Z,7.16
2018-11-02T04:34:22.873Z,7.27
2018-11-02T04:35:22.872Z,7.16
2018-11-02T04:36:22.864Z,6.94
2018-11-02T04:37:22.858Z,7.01
2018-11-02T04:38:22.867Z,6.94
2018-11-02T04:39:22.832Z,6.94
2018-11-02T04:40:22.829Z,7.01
2018-11-02T04:41:22.825Z,7.26
2018-11-02T04:42:22.809Z,7.09
2018-11-02T04:43:22.802Z,7.15
2018-11-02T04:44:22.844Z,6.97
2018-11-02T04:45:22.786Z,6.89
2018-11-02T04:46:22.775Z,6.89
2018-11-02T04:47:22.773Z,6.80
2018-11-02T04:48:22.775Z,6.77
2018-11-02T04:49:22.763Z,6.80
2018-11-02T04:50:22.749Z,6.80
2018-11-02T04:51:22.779Z,6.89
2018-11-02T04:52:22.737Z,6.80
2018-11-02T04:53:22.733Z,6.89
2018-11-02T04:54:22.720Z,6.79
2018-11-02T04:55:22.736Z,6.87
2018-11-02T04:56:22.702Z,6.84
2018-11-02T04:57:22.694Z,6.87
2018-11-02T04:58:22.694Z,6.90
2018-11-02T04:59:22.683Z,6.94
2018-11-02T05:00:22.690Z,6.94
2018-11-02T05:01:22.662Z,6.94
2018-11-02T05:02:22.665Z,6.99
2018-11-02T05:03:22.648Z,6.91
2018-11-02T05:04:22.644Z,6.94
2018-11-02T05:05:22.638Z,6.91
2018-11-02T05:06:22.632Z,6.91
2018-11-02T05:07:22.635Z,6.68
2018-11-02T05:08:22.617Z,6.61
2018-11-02T05:09:22.612Z,6.66
2018-11-02T05:10:22.603Z,6.86
2018-11-02T05:11:22.639Z,6.80
2018-11-02T05:12:22.584Z,6.95
2018-11-02T05:13:22.579Z,6.99
2018-11-02T05:14:22.583Z,6.95
2018-11-02T05:15:22.557Z,6.95
2018-11-02T05:16:22.558Z,6.90
2018-11-02T05:17:22.545Z,6.91
2018-11-02T05:18:22.541Z,6.80
2018-11-02T05:19:22.532Z,6.81
2018-11-02T05:20:22.526Z,6.79
2018-11-02T05:21:22.657Z,6.71
2018-11-02T05:22:22.507Z,6.62
2018-11-02T05:23:22.535Z,6.76
2018-11-02T05:24:22.496Z,6.63
2018-11-02T05:25:22.484Z,6.65
2018-11-02T05:26:22.476Z,6.68
2018-11-02T05:27:22.471Z,6.65
2018-11-02T05:28:22.507Z,6.68
2018-11-02T05:29:22.449Z,6.87
2018-11-02T05:30:22.472Z,6.63
2018-11-02T05:31:22.441Z,6.54
2018-11-02T05:32:22.429Z,6.66
2018-11-02T05:33:22.422Z,6.62
2018-11-02T05:34:22.420Z,6.56
2018-11-02T05:35:22.420Z,6.51
2018-11-02T05:36:22.402Z,6.54
2018-11-02T05:37:22.397Z,6.47
2018-11-02T05:38:22.397Z,6.48
2018-11-02T05:39:22.417Z,6.56
2018-11-02T05:40:22.372Z,6.66
2018-11-02T05:41:22.365Z,6.65
2018-11-02T05:42:22.352Z,6.71
2018-11-02T05:43:22.362Z,6.63
2018-11-02T05:44:22.340Z,6.71
2018-11-02T05:45:22.339Z,6.98
2018-11-02T05:46:22.334Z,6.95
2018-11-02T05:47:22.406Z,6.91
2018-11-02T05:48:22.312Z,6.84
2018-11-02T05:49:22.302Z,6.84
2018-11-02T05:50:22.293Z,6.73
2018-11-02T05:51:22.289Z,6.65
2018-11-02T05:52:22.281Z,6.71
2018-11-02T05:53:22.276Z,6.68
2018-11-02T05:54:22.340Z,6.69
2018-11-02T05:55:22.252Z,6.71
2018-11-02T05:57:43.287Z,6.81
2018-11-02T05:58:43.258Z,6.62
2018-11-02T05:59:43.257Z,6.48
2018-11-02T06:00:43.238Z,6.53
2018-11-02T06:01:43.328Z,6.44
2018-11-02T06:02:43.224Z,6.41
2018-11-02T06:03:43.221Z,6.46
2018-11-02T06:04:43.213Z,6.32
2018-11-02T06:05:43.206Z,6.46
2018-11-02T06:06:43.196Z,6.47
2018-11-02T06:07:43.216Z,6.56
2018-11-02T06:08:51.836Z,6.65
2018-11-02T06:09:51.851Z,6.61
2018-11-02T06:11:36.604Z,6.68
2018-11-02T06:12:36.587Z,6.66
2018-11-02T06:14:58.693Z,6.69
2018-11-02T06:17:19.596Z,6.77
2018-11-02T06:18:19.552Z,6.79
2018-11-02T06:19:19.589Z,6.84
2018-11-02T06:20:19.536Z,6.79
2018-11-02T06:21:19.532Z,6.84
2018-11-02T06:22:19.521Z,6.84
2018-11-02T06:23:19.527Z,6.84
2018-11-02T06:24:19.554Z,6.83
2018-11-02T06:25:19.527Z,6.77
2018-11-02T06:26:19.490Z,6.83
2018-11-02T06:27:19.492Z,6.81
2018-11-02T06:28:19.470Z,6.79
2018-11-02T06:29:19.465Z,6.94
2018-11-02T06:30:19.462Z,6.94
2018-11-02T06:31:19.448Z,6.95
2018-11-02T06:32:19.442Z,6.94
2018-11-02T06:33:19.440Z,6.97
2018-11-02T06:34:19.427Z,6.98
2018-11-02T06:35:19.413Z,7.09
2018-11-02T06:36:19.428Z,7.20
2018-11-02T06:37:19.400Z,7.31
2018-11-02T06:38:19.397Z,7.13
2018-11-02T06:39:19.393Z,7.09
2018-11-02T06:40:19.376Z,7.22
2018-11-02T06:41:19.369Z,7.12
2018-11-02T06:42:19.380Z,7.16
2018-11-02T06:43:19.370Z,7.17
2018-11-02T06:44:19.359Z,7.37
2018-11-02T06:45:19.372Z,7.24
2018-11-02T06:46:19.338Z,7.29
2018-11-02T06:47:19.335Z,7.22
2018-11-02T06:48:19.323Z,7.15
2018-11-02T06:49:19.314Z,7.22
2018-11-02T06:50:19.305Z,7.26
2018-11-02T06:51:19.327Z,7.24
2018-11-02T06:52:19.329Z,7.26
2018-11-02T06:53:19.325Z,7.23
2018-11-02T06:54:19.291Z,7.19
2018-11-02T06:55:19.273Z,7.22
2018-11-02T06:56:19.277Z,7.17
2018-11-02T06:57:19.261Z,7.19
2018-11-02T06:58:19.281Z,7.17
2018-11-02T06:59:19.283Z,7.16
2018-11-02T07:00:19.343Z,7.27
2018-11-02T07:01:19.232Z,7.35
2018-11-02T07:02:19.215Z,7.29
2018-11-02T07:03:19.243Z,7.29
2018-11-02T07:04:19.240Z,7.31
2018-11-02T07:05:19.196Z,7.37
2018-11-02T07:06:19.194Z,7.47
2018-11-02T07:07:19.352Z,7.53
2018-11-02T07:08:19.249Z,7.63
2018-11-02T07:09:19.169Z,7.66
2018-11-02T07:10:19.159Z,7.78
2018-11-02T07:11:19.147Z,7.81
2018-11-02T07:12:19.149Z,7.81
2018-11-02T07:13:19.145Z,7.77
2018-11-02T07:14:19.125Z,7.79
2018-11-02T07:15:19.125Z,7.84
2018-11-02T07:16:19.113Z,7.90
2018-11-02T07:17:19.116Z,7.93
2018-11-02T07:18:19.097Z,7.96
2018-11-02T07:19:19.108Z,8.03
2018-11-02T07:20:19.089Z,7.92
2018-11-02T07:21:19.114Z,8.02
2018-11-02T07:22:19.068Z,8.03
2018-11-02T07:23:19.066Z,7.93
2018-11-02T07:24:19.057Z,7.96
2018-11-02T07:25:19.147Z,8.12
2018-11-02T07:26:19.039Z,8.04
2018-11-02T07:27:19.045Z,8.15
2018-11-02T07:28:19.038Z,8.21
2018-11-02T07:29:19.025Z,8.25
2018-11-02T07:30:19.016Z,8.30
2018-11-02T07:31:19.004Z,8.35
2018-11-02T07:32:19.005Z,8.44
2018-11-02T07:33:19.007Z,8.47
2018-11-02T07:34:19.063Z,8.53
2018-11-02T07:35:18.990Z,8.54
2018-11-02T07:36:18.975Z,8.60
2018-11-02T07:37:18.969Z,8.68
2018-11-02T07:38:18.972Z,8.71
2018-11-02T07:39:18.960Z,8.69
2018-11-02T07:40:18.949Z,8.72
2018-11-02T07:41:18.971Z,8.76
2018-11-02T07:42:18.947Z,8.88
2018-11-02T07:43:18.937Z,8.79
2018-11-02T07:44:18.937Z,8.86
2018-11-02T07:45:18.924Z,8.86
2018-11-02T07:46:18.918Z,8.78
2018-11-02T07:47:18.913Z,8.87
2018-11-02T07:48:18.899Z,8.91
2018-11-02T07:49:18.900Z,8.91
2018-11-02T07:50:18.904Z,8.91
2018-11-02T07:51:18.906Z,8.94
2018-11-02T07:52:18.874Z,8.91
2018-11-02T07:53:18.860Z,8.87
2018-11-02T07:54:18.897Z,8.81
2018-11-02T07:55:18.857Z,8.78
2018-11-02T07:56:18.846Z,8.93
2018-11-02T07:57:18.849Z,8.91
2018-11-02T07:58:18.837Z,9.06
2018-11-02T07:59:18.837Z,9.10
2018-11-02T08:00:18.838Z,9.05
2018-11-02T08:01:18.816Z,9.12
2018-11-02T08:02:18.809Z,9.10
2018-11-02T08:03:18.804Z,9.05
2018-11-02T08:04:18.800Z,9.10
2018-11-02T08:05:18.791Z,9.25
2018-11-02T08:06:18.789Z,9.18
2018-11-02T08:07:18.780Z,9.46
2018-11-02T08:08:18.772Z,9.32
2018-11-02T08:09:18.772Z,9.42
2018-11-02T08:10:18.759Z,9.39
2018-11-02T08:11:18.804Z,9.39
2018-11-02T08:12:18.748Z,9.40
2018-11-02T08:13:18.747Z,9.35
2018-11-02T08:14:18.753Z,9.39
2018-11-02T08:15:18.732Z,9.35
2018-11-02T08:16:18.737Z,9.39
2018-11-02T08:17:18.720Z,9.46
2018-11-02T08:18:18.714Z,9.52
2018-11-02T08:19:18.714Z,9.46
2018-11-02T08:20:18.713Z,9.53
2018-11-02T08:21:18.713Z,9.58
2018-11-02T08:22:18.686Z,9.57
2018-11-02T08:23:18.681Z,9.68
2018-11-02T08:24:18.691Z,9.64
2018-11-02T08:25:18.672Z,9.76
2018-11-02T08:26:18.666Z,9.60
2018-11-02T08:27:18.667Z,9.60
2018-11-02T08:28:18.652Z,9.61
2018-11-02T08:29:18.746Z,9.66
2018-11-02T08:30:18.670Z,9.63
2018-11-02T08:31:18.739Z,9.64
2018-11-02T08:32:18.666Z,9.61
2018-11-02T08:33:18.626Z,9.66
2018-11-02T08:34:18.699Z,9.71
2018-11-02T08:35:18.629Z,9.78
2018-11-02T08:36:18.637Z,9.71
2018-11-02T08:37:18.732Z,9.81
2018-11-02T08:38:18.671Z,9.81
2018-11-02T08:39:18.610Z,9.88
2018-11-02T08:40:18.671Z,9.82
2018-11-02T08:41:18.640Z,9.79
2018-11-02T08:42:18.605Z,9.83
2018-11-02T08:43:18.654Z,9.91
2018-11-02T08:44:18.590Z,9.86
2018-11-02T08:45:18.585Z,9.97
2018-11-02T08:47:48.653Z,10.03
2018-11-02T08:48:39.571Z,10.03
2018-11-02T08:49:39.557Z,9.82
2018-11-02T08:50:39.547Z,9.94
2018-11-02T08:51:39.538Z,9.93
2018-11-02T08:52:39.546Z,9.94
2018-11-02T08:53:39.598Z,9.89
2018-11-02T08:54:39.552Z,9.93
2018-11-02T08:55:39.605Z,9.81
2018-11-02T08:56:39.583Z,9.76
2018-11-02T08:57:39.668Z,10.00
2018-11-02T08:58:39.759Z,10.06
2018-11-02T08:59:39.604Z,10.06
2018-11-02T09:00:39.633Z,9.96
2018-11-02T09:01:39.509Z,10.09
2018-11-02T09:02:39.520Z,10.14
2018-11-02T09:03:39.501Z,10.12
2018-11-02T09:04:39.543Z,10.04
2018-11-02T09:05:39.539Z,10.09
2018-11-02T09:06:39.525Z,10.32
2018-11-02T09:07:39.466Z,10.32
2018-11-02T09:08:39.450Z,10.17
2018-11-02T09:09:39.448Z,10.24
2018-11-02T09:10:39.439Z,10.26
2018-11-02T09:11:39.436Z,10.42
2018-11-02T09:12:39.429Z,10.39
2018-11-02T09:13:39.422Z,10.40
2018-11-02T09:14:39.414Z,10.33
2018-11-02T09:15:39.418Z,10.32
2018-11-02T09:16:39.403Z,10.53
2018-11-02T09:17:39.403Z,10.62
2018-11-02T09:18:39.393Z,10.71
2018-11-02T09:19:39.383Z,10.68
2018-11-02T09:20:39.425Z,10.68
2018-11-02T09:21:39.376Z,10.74
2018-11-02T09:22:39.440Z,10.77
2018-11-02T09:23:39.372Z,10.86
2018-11-02T09:24:39.370Z,10.65
2018-11-02T09:25:39.362Z,10.76
2018-11-02T09:26:39.351Z,10.70
2018-11-02T09:27:39.350Z,10.63
2018-11-02T09:28:39.344Z,10.71
2018-11-02T09:29:39.338Z,10.88
2018-11-02T09:30:39.333Z,11.02
2018-11-02T09:31:39.332Z,10.98
2018-11-02T09:32:39.343Z,10.83
2018-11-02T09:33:39.318Z,10.89
2018-11-02T09:34:39.309Z,11.03
2018-11-02T09:35:39.305Z,11.13
2018-11-02T09:36:39.301Z,11.38
2018-11-02T09:37:39.298Z,11.50
2018-11-02T09:38:39.293Z,11.21
2018-11-02T09:39:39.289Z,11.34
2018-11-02T09:40:39.290Z,11.34
2018-11-02T09:41:39.303Z,11.28
2018-11-02T09:42:39.328Z,11.09
2018-11-02T09:43:39.263Z,11.07
2018-11-02T09:44:39.265Z,11.25
2018-11-02T09:45:39.288Z,11.14
2018-11-02T09:46:39.322Z,11.27
2018-11-02T09:47:39.243Z,11.35
2018-11-02T09:48:39.254Z,11.24
2018-11-02T09:49:39.236Z,11.02
2018-11-02T09:50:39.236Z,11.11
2018-11-02T09:51:39.349Z,11.13
2018-11-02T09:52:39.230Z,11.11
2018-11-02T09:53:39.220Z,11.25
2018-11-02T09:54:39.220Z,11.24
2018-11-02T09:55:39.209Z,11.11
2018-11-02T09:56:39.266Z,11.10
2018-11-02T09:57:39.248Z,11.13
2018-11-02T09:58:39.202Z,11.24
2018-11-02T09:59:39.192Z,11.32
2018-11-02T10:00:39.205Z,11.31
2018-11-02T10:01:39.193Z,11.24
2018-11-02T10:02:39.192Z,11.20
2018-11-02T10:03:39.179Z,11.07
2018-11-02T10:04:39.202Z,11.06
2018-11-02T10:05:39.161Z,11.07
2018-11-02T10:06:39.162Z,11.27
2018-11-02T10:07:39.153Z,11.19
2018-11-02T10:08:39.145Z,11.07
2018-11-02T10:09:39.176Z,11.11
2018-11-02T10:10:39.135Z,11.25
2018-11-02T10:11:39.143Z,11.35
2018-11-02T10:12:39.149Z,11.28
2018-11-02T10:13:39.128Z,11.25
2018-11-02T10:14:39.116Z,11.20
2018-11-02T10:15:39.115Z,11.28
2018-11-02T10:16:39.111Z,11.20
2018-11-02T10:17:39.105Z,11.24
2018-11-02T10:18:39.099Z,11.21
2018-11-02T10:19:39.097Z,11.17
2018-11-02T10:20:39.088Z,11.20
2018-11-02T10:21:39.083Z,11.43
2018-11-02T10:22:39.079Z,11.62
2018-11-02T10:23:39.085Z,11.67
2018-11-02T10:24:39.075Z,11.47
2018-11-02T10:25:39.069Z,11.50
2018-11-02T10:26:39.120Z,11.49
2018-11-02T10:27:39.060Z,11.39
2018-11-02T10:28:39.057Z,11.28
2018-11-02T10:29:39.047Z,11.31
2018-11-02T10:30:39.043Z,11.31
2018-11-02T10:31:39.039Z,11.44
2018-11-02T10:32:39.035Z,11.67
2018-11-02T10:33:39.029Z,11.72
2018-11-02T10:34:39.038Z,11.65
2018-11-02T10:35:39.220Z,11.77
2018-11-02T10:36:39.015Z,12.05
2018-11-02T10:37:39.009Z,12.08
2018-11-02T10:38:39.011Z,12.12
2018-11-02T10:39:39.050Z,12.23
2018-11-02T10:40:38.999Z,12.13
2018-11-02T10:41:38.994Z,12.12
2018-11-02T10:42:38.992Z,12.16
2018-11-02T10:43:38.984Z,12.11
2018-11-02T10:44:39.030Z,11.96
2018-11-02T10:45:38.976Z,12.13
2018-11-02T10:46:38.978Z,12.23
2018-11-02T10:47:38.966Z,12.34
2018-11-02T10:48:38.954Z,12.13
2018-11-02T10:49:38.962Z,12.12
2018-11-02T10:50:38.951Z,12.04
2018-11-02T10:51:38.951Z,12.09
2018-11-02T10:52:38.948Z,12.06
2018-11-02T10:53:38.949Z,12.06
2018-11-02T10:54:39.043Z,12.02
2018-11-02T10:55:38.941Z,12.16
2018-11-02T10:56:38.992Z,12.13
2018-11-02T10:57:38.931Z,12.16
2018-11-02T10:58:38.914Z,12.08
2018-11-02T10:59:38.919Z,12.12
2018-11-02T11:00:39.032Z,12.41
2018-11-02T11:01:38.922Z,12.49
2018-11-02T11:02:38.907Z,12.66
2018-11-02T11:03:38.904Z,12.54
2018-11-02T11:04:38.890Z,12.42
2018-11-02T11:05:38.894Z,12.42
2018-11-02T11:06:38.881Z,12.52
2018-11-02T11:07:38.882Z,12.23
2018-11-02T11:08:38.879Z,12.23
2018-11-02T11:09:38.897Z,12.21
2018-11-02T11:10:38.865Z,12.23
2018-11-02T11:11:38.947Z,12.29
2018-11-02T11:12:39.175Z,12.39
2018-11-02T11:13:39.297Z,12.21
2018-11-02T11:14:38.856Z,12.19
2018-11-02T11:15:38.866Z,12.34
2018-11-02T11:16:38.860Z,12.41
2018-11-02T11:17:38.868Z,12.27
2018-11-02T11:18:38.838Z,12.39
2018-11-02T11:19:38.843Z,12.38
2018-11-02T11:20:38.831Z,12.54
2018-11-02T11:21:38.823Z,12.49
2018-11-02T11:22:38.833Z,12.39
2018-11-02T11:23:38.820Z,12.27
2018-11-02T11:24:38.810Z,12.42
2018-11-02T11:25:38.820Z,12.49
2018-11-02T11:26:38.807Z,12.42
2018-11-02T11:27:38.815Z,12.62
2018-11-02T11:28:38.802Z,12.56
2018-11-02T11:29:38.811Z,12.79
2018-11-02T11:30:47.452Z,12.85
2018-11-02T11:32:32.233Z,12.92
2018-11-02T11:33:32.183Z,12.84
2018-11-02T11:34:32.188Z,12.70
2018-11-02T11:35:32.185Z,12.84
2018-11-02T11:36:32.177Z,12.75
2018-11-02T11:37:32.170Z,12.62
2018-11-02T11:38:32.162Z,12.51
2018-11-02T11:39:40.900Z,12.54
2018-11-02T11:41:25.557Z,12.64
2018-11-02T11:42:25.536Z,12.71
2018-11-02T11:43:25.539Z,12.69
2018-11-02T11:44:25.533Z,12.64
2018-11-02T11:45:25.530Z,12.54
2018-11-02T11:46:25.526Z,12.49
2018-11-02T11:47:25.518Z,12.64
2018-11-02T11:48:25.540Z,12.66
2018-11-02T11:49:25.514Z,12.66
2018-11-02T11:50:25.508Z,12.57
2018-11-02T11:51:25.512Z,12.67
2018-11-02T11:52:25.502Z,12.74
2018-11-02T11:53:25.499Z,12.79
2018-11-02T11:54:25.540Z,12.84
2018-11-02T11:55:25.493Z,12.70
2018-11-02T11:56:25.487Z,12.79
2018-11-02T11:57:25.478Z,12.84
2018-11-02T11:58:25.475Z,12.81
2018-11-02T11:59:25.478Z,12.74
2018-11-02T12:00:25.476Z,12.71
2018-11-02T12:01:25.475Z,12.71
2018-11-02T12:02:25.542Z,12.71
2018-11-02T12:03:25.461Z,12.70
2018-11-02T12:04:25.556Z,12.71
2018-11-02T12:05:25.454Z,12.71
2018-11-02T12:06:25.453Z,12.81
2018-11-02T12:07:25.483Z,12.89
2018-11-02T12:08:25.439Z,13.00
2018-11-02T12:09:25.442Z,13.02
2018-11-02T12:10:25.565Z,13.11
2018-11-02T12:11:25.431Z,13.09
2018-11-02T12:12:25.433Z,13.29
2018-11-02T12:13:25.427Z,13.30
2018-11-02T12:14:25.431Z,13.22
2018-11-02T12:15:25.419Z,13.14
2018-11-02T12:16:25.427Z,13.11
2018-11-02T12:17:25.412Z,12.96
2018-11-02T12:18:25.433Z,12.95
2018-11-02T12:19:25.403Z,13.09
2018-11-02T12:20:25.400Z,13.12
2018-11-02T12:21:25.403Z,13.15
2018-11-02T12:22:25.399Z,13.27
2018-11-02T12:23:25.435Z,13.25
2018-11-02T12:24:25.397Z,13.43
2018-11-02T12:25:25.416Z,13.52
2018-11-02T12:26:25.385Z,13.49
2018-11-02T12:27:25.407Z,13.32
2018-11-02T12:28:25.500Z,13.33
2018-11-02T12:29:25.374Z,13.40
2018-11-02T12:30:25.394Z,13.40
2018-11-02T12:31:25.374Z,13.43
2018-11-02T12:32:25.360Z,13.43
2018-11-02T12:33:25.402Z,13.61
2018-11-02T12:34:25.359Z,13.55
2018-11-02T12:35:25.353Z,13.74
2018-11-02T12:36:25.348Z,13.67
2018-11-02T12:37:25.347Z,13.73
2018-11-02T12:38:25.347Z,13.80
2018-11-02T12:39:25.339Z,13.69
2018-11-02T12:40:25.385Z,13.58
2018-11-02T12:41:25.339Z,13.37
2018-11-02T12:42:25.336Z,13.51
2018-11-02T12:43:25.404Z,13.56
2018-11-02T12:44:25.327Z,13.52
2018-11-02T12:45:25.326Z,13.49
2018-11-02T12:46:25.325Z,13.37
2018-11-02T12:47:25.324Z,13.55
2018-11-02T12:48:25.364Z,13.44
2018-11-02T12:49:25.639Z,13.49
2018-11-02T12:50:25.468Z,13.25
2018-11-02T12:51:25.369Z,13.56
2018-11-02T12:52:25.307Z,13.55
2018-11-02T12:53:25.301Z,13.73
2018-11-02T12:54:25.299Z,13.74
2018-11-02T12:55:25.297Z,13.69
2018-11-02T12:56:25.299Z,13.65
2018-11-02T12:57:25.355Z,13.88
2018-11-02T12:58:25.299Z,13.98
2018-11-02T12:59:25.289Z,13.84
2018-11-02T13:00:25.304Z,13.80
2018-11-02T13:01:25.311Z,13.91
2018-11-02T13:02:25.276Z,13.81
2018-11-02T13:03:25.299Z,14.09
2018-11-02T13:04:25.285Z,13.94
2018-11-02T13:05:25.270Z,13.98
2018-11-02T13:06:25.264Z,13.98
2018-11-02T13:07:25.263Z,13.98
2018-11-02T13:08:25.258Z,13.98
2018-11-02T13:09:25.292Z,14.02
2018-11-02T13:10:25.253Z,13.94
2018-11-02T13:11:25.272Z,13.84
2018-11-02T13:12:25.255Z,13.88
2018-11-02T13:13:25.245Z,13.56
2018-11-02T13:14:25.237Z,13.59
2018-11-02T13:15:25.245Z,13.71
2018-11-02T13:16:25.240Z,13.76
2018-11-02T13:17:25.261Z,13.88
2018-11-02T13:18:25.235Z,13.87
2018-11-02T13:19:25.236Z,13.84
2018-11-02T13:20:25.407Z,13.77
2018-11-02T13:21:25.226Z,13.63
2018-11-02T13:22:25.231Z,13.55
2018-11-02T13:23:25.218Z,13.49
2018-11-02T13:24:25.215Z,13.46
2018-11-02T13:25:25.256Z,13.51
2018-11-02T13:26:25.271Z,13.69
2018-11-02T13:27:25.229Z,13.89
2018-11-02T13:28:25.210Z,13.99
2018-11-02T13:29:25.202Z,14.12
2018-11-02T13:30:25.413Z,14.01
2018-11-02T13:31:25.286Z,13.95
2018-11-02T13:32:25.190Z,13.98
2018-11-02T13:33:25.191Z,13.94
2018-11-02T13:34:25.190Z,14.04
2018-11-02T13:35:25.187Z,14.12
2018-11-02T13:36:25.303Z,14.04
2018-11-02T13:37:25.183Z,14.12
2018-11-02T13:38:25.174Z,14.09
2018-11-02T13:39:25.172Z,13.95
2018-11-02T13:40:25.203Z,14.06
2018-11-02T13:41:25.173Z,14.06
2018-11-02T13:42:25.171Z,14.06
2018-11-02T13:43:25.204Z,14.07
2018-11-02T13:44:25.156Z,14.07
2018-11-02T13:45:25.153Z,14.09
2018-11-02T13:46:25.150Z,14.10
2018-11-02T13:47:25.142Z,13.99
2018-11-02T13:48:25.152Z,14.06
2018-11-02T13:49:25.141Z,14.09
2018-11-02T13:50:25.193Z,14.10
2018-11-02T13:51:25.131Z,13.95
2018-11-02T13:52:25.137Z,13.99
2018-11-02T13:53:25.185Z,13.99
2018-11-02T13:54:25.131Z,13.95
2018-11-02T13:55:25.136Z,13.99
2018-11-02T13:56:25.127Z,14.09
2018-11-02T13:57:25.118Z,14.06
2018-11-02T13:58:25.113Z,14.09
2018-11-02T13:59:25.116Z,14.06
2018-11-02T14:00:25.115Z,14.20
2018-11-02T14:01:25.114Z,14.09
2018-11-02T14:02:25.099Z,14.10
2018-11-02T14:03:25.155Z,14.10
2018-11-02T14:04:25.118Z,14.09
2018-11-02T14:05:25.103Z,14.12
2018-11-02T14:06:25.096Z,14.04
2018-11-02T14:07:25.090Z,13.99
2018-11-02T14:08:25.091Z,13.94
2018-11-02T14:09:25.102Z,14.07
2018-11-02T14:10:25.090Z,14.01
2018-11-02T14:11:25.092Z,13.99
2018-11-02T14:12:25.076Z,14.02
2018-11-02T14:13:25.074Z,13.87
2018-11-02T14:14:25.092Z,13.92
2018-11-02T14:15:25.072Z,13.94
2018-11-02T14:16:25.069Z,13.98
2018-11-02T14:17:25.068Z,14.07
2018-11-02T14:18:25.187Z,13.99
2018-11-02T14:19:25.062Z,14.02
2018-11-02T14:20:25.063Z,14.09
2018-11-02T14:21:25.077Z,14.20
2018-11-02T14:22:25.063Z,14.19
2018-11-02T14:23:25.051Z,14.21
2018-11-02T14:24:25.048Z,14.21
2018-11-02T14:25:25.049Z,14.20
2018-11-02T14:26:25.047Z,14.14
2018-11-02T14:27:25.042Z,14.04
2018-11-02T14:28:25.033Z,14.09
2018-11-02T14:29:25.047Z,14.09
2018-11-02T14:30:25.082Z,14.02
2018-11-02T14:31:25.031Z,14.02
2018-11-02T14:32:25.027Z,13.94
2018-11-02T14:33:25.027Z,14.13
2018-11-02T14:34:33.660Z,14.10
2018-11-02T14:36:18.436Z,13.95
